aviador You're here:

YMAV Decoded Metar

AVALON in AUSTRALIA
Report Time2017-11-24 20:00:00
UTC Time2017-11-24 20:16:34
Flight Rules vfr VFR
Wind040° at 05 kt
W.Decomp.*RWY 36: 4.4 kt HW 2.4 kt RCW
W.Rank040° ranks 26
Current wind is below 040° avg. (7.1)
Visibility9999 m
Phenomena:N/A
Clouds:N/A
Expected CloudBase > 800 ft AGL from Temp-Dew spread
CeilingNone
Temp19°C (ISA +4)
Dew Point17°C (88% RH)
QNH1014 hPa
Density Alt725 ft
Elevation26 ft
Report Wrong Elevation
Raw Report
YMAV 242000Z AUTO 04005KT 360V090 9999 // NCD 19/17 Q1014
RF00.0/000.0=

Extra information for YMAV:More info

Metar Taf Metar & Taf Last 4 Metars F.Rules Stats Wind Profile Meteogram Temp Stats Airport Information Weather charts Add Link Nearby VenuesMetar ALERT Operation Metar Decoded Social comments